sensor_id;sensor_type;location;lat;lon;timestamp;pressure;altitude;pressure_sealevel;temperature;humidity
75604;BME280;64187;51.010;13.792;2023-12-20T00:00:07;99885.19;;;6.62;89.83
75604;BME280;64187;51.010;13.792;2023-12-20T00:05:06;99886.13;;;6.56;88.23
75604;BME280;64187;51.010;13.792;2023-12-20T00:10:06;99879.06;;;6.74;86.94
75604;BME280;64187;51.010;13.792;2023-12-20T00:15:06;99874.31;;;6.57;86.80
75604;BME280;64187;51.010;13.792;2023-12-20T00:20:06;99863.28;;;6.47;87.46
75604;BME280;64187;51.010;13.792;2023-12-20T00:25:05;99855.88;;;6.42;88.61
75604;BME280;64187;51.010;13.792;2023-12-20T00:30:04;99852.97;;;6.44;88.08
75604;BME280;64187;51.010;13.792;2023-12-20T00:35:04;99849.03;;;6.28;87.49
75604;BME280;64187;51.010;13.792;2023-12-20T00:40:03;99858.50;;;6.49;87.17
75604;BME280;64187;51.010;13.792;2023-12-20T00:45:03;99867.84;;;6.28;86.99
75604;BME280;64187;51.010;13.792;2023-12-20T00:50:03;99857.41;;;6.20;86.16
75604;BME280;64187;51.010;13.792;2023-12-20T00:55:03;99846.31;;;6.16;87.96
75604;BME280;64187;51.010;13.792;2023-12-20T01:00:03;99844.34;;;6.05;86.85
75604;BME280;64187;51.010;13.792;2023-12-20T01:05:02;99831.59;;;6.00;88.63
75604;BME280;64187;51.010;13.792;2023-12-20T01:10:01;99831.44;;;5.95;87.23
75604;BME280;64187;51.010;13.792;2023-12-20T01:15:00;99832.59;;;5.81;88.80
75604;BME280;64187;51.010;13.792;2023-12-20T01:20:06;99822.97;;;5.92;87.31
75604;BME280;64187;51.010;13.792;2023-12-20T01:25:08;99821.59;;;6.08;86.49
75604;BME280;64187;51.010;13.792;2023-12-20T01:30:07;99818.50;;;5.86;88.46
75604;BME280;64187;51.010;13.792;2023-12-20T01:35:07;99822.22;;;5.85;88.17
75604;BME280;64187;51.010;13.792;2023-12-20T01:40:06;99813.50;;;5.89;88.45
75604;BME280;64187;51.010;13.792;2023-12-20T01:45:07;99804.97;;;5.99;85.82
75604;BME280;64187;51.010;13.792;2023-12-20T01:50:07;99805.44;;;5.71;88.46
75604;BME280;64187;51.010;13.792;2023-12-20T01:55:08;99809.03;;;5.83;86.47
75604;BME280;64187;51.010;13.792;2023-12-20T02:00:12;99803.78;;;5.88;88.48
75604;BME280;64187;51.010;13.792;2023-12-20T02:05:13;99807.38;;;5.82;87.72
75604;BME280;64187;51.010;13.792;2023-12-20T02:10:12;99807.91;;;5.72;87.20
75604;BME280;64187;51.010;13.792;2023-12-20T02:15:12;99791.34;;;5.75;88.08
75604;BME280;64187;51.010;13.792;2023-12-20T02:20:11;99785.75;;;5.77;87.20
75604;BME280;64187;51.010;13.792;2023-12-20T02:25:10;99782.47;;;5.75;87.17
75604;BME280;64187;51.010;13.792;2023-12-20T02:30:10;99776.88;;;5.76;86.88
75604;BME280;64187;51.010;13.792;2023-12-20T02:35:09;99778.03;;;5.44;88.36
75604;BME280;64187;51.010;13.792;2023-12-20T02:40:08;99774.13;;;5.65;87.43
75604;BME280;64187;51.010;13.792;2023-12-20T02:45:07;99766.59;;;5.55;86.35
75604;BME280;64187;51.010;13.792;2023-12-20T02:50:07;99752.69;;;5.39;88.64
75604;BME280;64187;51.010;13.792;2023-12-20T02:55:06;99762.38;;;5.40;88.10
75604;BME280;64187;51.010;13.792;2023-12-20T03:00:05;99765.38;;;5.32;88.65
75604;BME280;64187;51.010;13.792;2023-12-20T03:05:05;99765.22;;;5.46;88.16
75604;BME280;64187;51.010;13.792;2023-12-20T03:10:05;99753.00;;;5.50;87.85
75604;BME280;64187;51.010;13.792;2023-12-20T03:15:22;99752.97;;;5.31;88.14
75604;BME280;64187;51.010;13.792;2023-12-20T03:20:24;99763.13;;;5.48;87.48
75604;BME280;64187;51.010;13.792;2023-12-20T03:25:24;99752.25;;;5.24;88.82
75604;BME280;64187;51.010;13.792;2023-12-20T03:30:23;99743.75;;;5.27;88.96
75604;BME280;64187;51.010;13.792;2023-12-20T03:35:22;99731.66;;;5.18;89.43
75604;BME280;64187;51.010;13.792;2023-12-20T03:40:21;99726.13;;;5.31;88.65
75604;BME280;64187;51.010;13.792;2023-12-20T03:45:21;99730.69;;;5.31;90.34
75604;BME280;64187;51.010;13.792;2023-12-20T03:50:22;99729.16;;;5.42;89.35
75604;BME280;64187;51.010;13.792;2023-12-20T03:55:21;99747.59;;;5.31;89.52
75604;BME280;64187;51.010;13.792;2023-12-20T04:00:20;99728.75;;;5.38;88.81
75604;BME280;64187;51.010;13.792;2023-12-20T04:05:19;99724.28;;;5.32;89.49
75604;BME280;64187;51.010;13.792;2023-12-20T04:10:18;99731.59;;;5.25;91.34
75604;BME280;64187;51.010;13.792;2023-12-20T04:15:17;99720.09;;;5.36;92.09
75604;BME280;64187;51.010;13.792;2023-12-20T04:20:16;99725.84;;;5.21;91.42
75604;BME280;64187;51.010;13.792;2023-12-20T04:25:15;99719.59;;;5.27;91.93
75604;BME280;64187;51.010;13.792;2023-12-20T04:30:14;99724.22;;;5.38;92.31
75604;BME280;64187;51.010;13.792;2023-12-20T04:35:13;99733.16;;;5.51;92.10
75604;BME280;64187;51.010;13.792;2023-12-20T04:40:12;99725.03;;;5.39;92.03
75604;BME280;64187;51.010;13.792;2023-12-20T04:45:12;99735.34;;;5.42;91.92
75604;BME280;64187;51.010;13.792;2023-12-20T04:50:12;99728.47;;;5.46;92.86
75604;BME280;64187;51.010;13.792;2023-12-20T04:55:12;99734.66;;;5.65;91.75
75604;BME280;64187;51.010;13.792;2023-12-20T05:00:11;99733.91;;;5.39;92.40
75604;BME280;64187;51.010;13.792;2023-12-20T05:05:10;99734.72;;;5.58;93.24
75604;BME280;64187;51.010;13.792;2023-12-20T05:10:09;99733.69;;;5.59;91.98
75604;BME280;64187;51.010;13.792;2023-12-20T05:15:09;99732.13;;;5.70;91.66
75604;BME280;64187;51.010;13.792;2023-12-20T05:20:08;99738.53;;;5.51;93.90
75604;BME280;64187;51.010;13.792;2023-12-20T05:25:07;99730.19;;;5.59;93.50
75604;BME280;64187;51.010;13.792;2023-12-20T05:30:06;99752.50;;;5.59;92.91
75604;BME280;64187;51.010;13.792;2023-12-20T05:35:05;99755.69;;;5.50;92.83
75604;BME280;64187;51.010;13.792;2023-12-20T05:40:05;99755.59;;;5.56;92.72
75604;BME280;64187;51.010;13.792;2023-12-20T05:45:05;99753.16;;;9.13;100.00
75604;BME280;64187;51.010;13.792;2023-12-20T05:50:04;99768.00;;;8.36;84.96
75604;BME280;64187;51.010;13.792;2023-12-20T05:55:04;99766.81;;;6.81;85.05
75604;BME280;64187;51.010;13.792;2023-12-20T06:00:03;99767.50;;;6.04;88.91
75604;BME280;64187;51.010;13.792;2023-12-20T06:05:09;99774.34;;;5.81;90.99
75604;BME280;64187;51.010;13.792;2023-12-20T06:10:08;99783.94;;;5.71;92.80
75604;BME280;64187;51.010;13.792;2023-12-20T06:15:08;99776.28;;;5.74;92.48
75604;BME280;64187;51.010;13.792;2023-12-20T06:20:07;99777.31;;;5.73;92.94
75604;BME280;64187;51.010;13.792;2023-12-20T06:25:07;99783.44;;;5.80;92.18
75604;BME280;64187;51.010;13.792;2023-12-20T06:30:07;99775.28;;;5.69;92.81
75604;BME280;64187;51.010;13.792;2023-12-20T06:35:08;99776.00;;;5.64;91.84
75604;BME280;64187;51.010;13.792;2023-12-20T06:40:11;99788.88;;;5.74;91.92
75604;BME280;64187;51.010;13.792;2023-12-20T06:45:15;99821.63;;;5.64;91.58
75604;BME280;64187;51.010;13.792;2023-12-20T06:50:14;99821.19;;;5.67;92.54
75604;BME280;64187;51.010;13.792;2023-12-20T06:55:13;99818.84;;;5.71;92.77
75604;BME280;64187;51.010;13.792;2023-12-20T07:00:13;99824.69;;;5.68;92.91
75604;BME280;64187;51.010;13.792;2023-12-20T07:05:12;99838.72;;;5.70;92.76
75604;BME280;64187;51.010;13.792;2023-12-20T07:10:11;99842.56;;;5.74;92.91
75604;BME280;64187;51.010;13.792;2023-12-20T07:15:10;99858.47;;;5.75;92.07
75604;BME280;64187;51.010;13.792;2023-12-20T07:20:09;99835.22;;;5.69;91.92
75604;BME280;64187;51.010;13.792;2023-12-20T07:25:09;99842.06;;;5.83;90.94
75604;BME280;64187;51.010;13.792;2023-12-20T07:30:09;99858.03;;;5.78;91.27
75604;BME280;64187;51.010;13.792;2023-12-20T07:35:08;99856.25;;;5.72;91.31
75604;BME280;64187;51.010;13.792;2023-12-20T07:40:08;99851.00;;;6.02;90.09
75604;BME280;64187;51.010;13.792;2023-12-20T07:45:07;99838.50;;;5.90;89.74
75604;BME280;64187;51.010;13.792;2023-12-20T07:50:06;99843.94;;;5.83;90.13
75604;BME280;64187;51.010;13.792;2023-12-20T07:55:06;99843.41;;;5.74;89.60
75604;BME280;64187;51.010;13.792;2023-12-20T08:00:05;99829.09;;;5.80;89.44
75604;BME280;64187;51.010;13.792;2023-12-20T08:05:04;99842.06;;;5.83;88.67
75604;BME280;64187;51.010;13.792;2023-12-20T08:10:03;99840.06;;;5.79;88.28
75604;BME280;64187;51.010;13.792;2023-12-20T08:15:03;99838.34;;;5.85;87.35
75604;BME280;64187;51.010;13.792;2023-12-20T08:20:03;99838.81;;;6.00;84.98
75604;BME280;64187;51.010;13.792;2023-12-20T08:25:02;99844.03;;;6.32;82.99
75604;BME280;64187;51.010;13.792;2023-12-20T08:30:01;99846.47;;;6.33;82.57
75604;BME280;64187;51.010;13.792;2023-12-20T08:35:00;99853.84;;;6.26;82.70
75604;BME280;64187;51.010;13.792;2023-12-20T08:39:59;99848.59;;;6.31;81.09
75604;BME280;64187;51.010;13.792;2023-12-20T08:44:58;99845.69;;;6.63;78.24
75604;BME280;64187;51.010;13.792;2023-12-20T08:49:57;99848.75;;;6.66;78.22
75604;BME280;64187;51.010;13.792;2023-12-20T08:54:58;99846.06;;;6.66;77.62
75604;BME280;64187;51.010;13.792;2023-12-20T08:59:57;99861.66;;;6.76;75.92
75604;BME280;64187;51.010;13.792;2023-12-20T09:04:57;99859.91;;;6.52;75.98
75604;BME280;64187;51.010;13.792;2023-12-20T09:09:57;99855.06;;;6.42;74.21
75604;BME280;64187;51.010;13.792;2023-12-20T09:14:56;99854.44;;;6.58;72.81
75604;BME280;64187;51.010;13.792;2023-12-20T09:19:55;99858.31;;;6.62;72.75
75604;BME280;64187;51.010;13.792;2023-12-20T09:24:54;99864.47;;;6.81;72.68
75604;BME280;64187;51.010;13.792;2023-12-20T09:29:53;99855.34;;;6.82;73.63
75604;BME280;64187;51.010;13.792;2023-12-20T09:34:52;99853.16;;;6.91;73.33
75604;BME280;64187;51.010;13.792;2023-12-20T09:39:51;99840.34;;;7.40;71.43
75604;BME280;64187;51.010;13.792;2023-12-20T09:44:50;99836.25;;;7.49;71.74
75604;BME280;64187;51.010;13.792;2023-12-20T09:49:50;99837.44;;;7.18;72.05
75604;BME280;64187;51.010;13.792;2023-12-20T09:54:51;99815.66;;;7.31;73.53
75604;BME280;64187;51.010;13.792;2023-12-20T09:59:51;99837.22;;;7.43;72.65
75604;BME280;64187;51.010;13.792;2023-12-20T10:04:50;99825.50;;;7.26;71.08
75604;BME280;64187;51.010;13.792;2023-12-20T10:09:51;99818.44;;;7.60;70.17
75604;BME280;64187;51.010;13.792;2023-12-20T10:14:52;99831.81;;;7.43;69.70
75604;BME280;64187;51.010;13.792;2023-12-20T10:19:51;99813.09;;;7.48;68.72
75604;BME280;64187;51.010;13.792;2023-12-20T10:24:51;99805.59;;;7.39;69.39
75604;BME280;64187;51.010;13.792;2023-12-20T10:29:49;99797.63;;;7.55;70.52
75604;BME280;64187;51.010;13.792;2023-12-20T10:34:49;99781.59;;;7.61;67.97
75604;BME280;64187;51.010;13.792;2023-12-20T10:39:50;99784.72;;;7.58;68.77
75604;BME280;64187;51.010;13.792;2023-12-20T10:44:50;99775.22;;;7.79;68.30
75604;BME280;64187;51.010;13.792;2023-12-20T10:49:52;99776.03;;;7.91;66.83
75604;BME280;64187;51.010;13.792;2023-12-20T10:54:51;99760.78;;;7.85;66.37
75604;BME280;64187;51.010;13.792;2023-12-20T10:59:53;99758.28;;;8.07;65.97
75604;BME280;64187;51.010;13.792;2023-12-20T11:04:56;99755.09;;;7.69;65.27
75604;BME280;64187;51.010;13.792;2023-12-20T11:10:10;99776.81;;;8.03;65.91
75604;BME280;64187;51.010;13.792;2023-12-20T11:15:12;99760.97;;;8.07;63.61
75604;BME280;64187;51.010;13.792;2023-12-20T11:20:11;99761.84;;;8.24;64.47
75604;BME280;64187;51.010;13.792;2023-12-20T11:25:11;99766.41;;;7.95;62.81
75604;BME280;64187;51.010;13.792;2023-12-20T11:30:11;99761.66;;;7.73;62.34
75604;BME280;64187;51.010;13.792;2023-12-20T11:40:14;99768.16;;;7.89;63.15
75604;BME280;64187;51.010;13.792;2023-12-20T11:45:15;99748.34;;;7.43;64.15
75604;BME280;64187;51.010;13.792;2023-12-20T11:50:14;99728.16;;;7.58;64.51
75604;BME280;64187;51.010;13.792;2023-12-20T11:55:13;99727.63;;;7.55;64.23
75604;BME280;64187;51.010;13.792;2023-12-20T12:00:13;99717.34;;;7.29;65.22
75604;BME280;64187;51.010;13.792;2023-12-20T12:05:12;99698.22;;;7.42;65.64
75604;BME280;64187;51.010;13.792;2023-12-20T12:10:11;99711.56;;;7.61;63.61
75604;BME280;64187;51.010;13.792;2023-12-20T12:15:10;99698.09;;;7.61;63.96
75604;BME280;64187;51.010;13.792;2023-12-20T12:20:09;99721.16;;;7.57;63.07
75604;BME280;64187;51.010;13.792;2023-12-20T12:25:10;99687.22;;;7.55;63.67
75604;BME280;64187;51.010;13.792;2023-12-20T12:30:10;99687.06;;;7.62;64.00
75604;BME280;64187;51.010;13.792;2023-12-20T12:35:11;99670.09;;;7.62;62.85
75604;BME280;64187;51.010;13.792;2023-12-20T12:40:12;99661.81;;;7.51;62.91
75604;BME280;64187;51.010;13.792;2023-12-20T12:45:12;99656.47;;;7.80;62.56
75604;BME280;64187;51.010;13.792;2023-12-20T12:50:11;99655.56;;;7.91;63.19
75604;BME280;64187;51.010;13.792;2023-12-20T12:55:10;99656.97;;;7.94;61.43
75604;BME280;64187;51.010;13.792;2023-12-20T13:00:09;99653.13;;;7.61;62.57
75604;BME280;64187;51.010;13.792;2023-12-20T13:05:09;99651.34;;;7.67;62.60
75604;BME280;64187;51.010;13.792;2023-12-20T13:10:09;99637.78;;;7.62;62.51
75604;BME280;64187;51.010;13.792;2023-12-20T13:15:09;99634.59;;;7.65;62.18
75604;BME280;64187;51.010;13.792;2023-12-20T13:20:08;99625.66;;;7.76;62.25
75604;BME280;64187;51.010;13.792;2023-12-20T13:25:07;99608.84;;;7.57;63.55
75604;BME280;64187;51.010;13.792;2023-12-20T13:30:06;99608.84;;;7.57;64.15
75604;BME280;64187;51.010;13.792;2023-12-20T13:35:06;99602.75;;;7.62;63.09
75604;BME280;64187;51.010;13.792;2023-12-20T13:40:06;99606.13;;;7.69;63.47
75604;BME280;64187;51.010;13.792;2023-12-20T13:45:06;99593.66;;;7.51;63.70
75604;BME280;64187;51.010;13.792;2023-12-20T13:50:05;99593.06;;;7.61;62.80
75604;BME280;64187;51.010;13.792;2023-12-20T13:55:05;99593.16;;;7.25;64.73
75604;BME280;64187;51.010;13.792;2023-12-20T14:00:07;99584.41;;;7.18;64.77
75604;BME280;64187;51.010;13.792;2023-12-20T14:05:13;99575.28;;;7.19;65.58
75604;BME280;64187;51.010;13.792;2023-12-20T14:10:16;99576.09;;;7.20;65.61
75604;BME280;64187;51.010;13.792;2023-12-20T14:15:15;99559.53;;;6.99;65.52
75604;BME280;64187;51.010;13.792;2023-12-20T14:20:14;99559.53;;;6.99;65.81
75604;BME280;64187;51.010;13.792;2023-12-20T14:25:14;99558.00;;;7.03;65.72
75604;BME280;64187;51.010;13.792;2023-12-20T14:30:13;99564.19;;;7.16;65.00
75604;BME280;64187;51.010;13.792;2023-12-20T14:35:14;99555.78;;;7.00;65.35
75604;BME280;64187;51.010;13.792;2023-12-20T14:40:13;99563.84;;;7.00;64.89
75604;BME280;64187;51.010;13.792;2023-12-20T14:45:15;99564.19;;;7.16;64.90
75604;BME280;64187;51.010;13.792;2023-12-20T14:50:17;99558.00;;;7.03;64.59
75604;BME280;64187;51.010;13.792;2023-12-20T14:55:18;99554.84;;;7.06;64.82
75604;BME280;64187;51.010;13.792;2023-12-20T15:00:17;99569.09;;;7.07;64.30
75604;BME280;64187;51.010;13.792;2023-12-20T15:05:16;99563.25;;;7.10;64.70
75604;BME280;64187;51.010;13.792;2023-12-20T15:10:16;99568.00;;;7.20;64.95
75604;BME280;64187;51.010;13.792;2023-12-20T15:15:19;99566.88;;;7.16;64.35
75604;BME280;64187;51.010;13.792;2023-12-20T15:20:19;99561.59;;;7.21;64.60
75604;BME280;64187;51.010;13.792;2023-12-20T15:25:19;99551.00;;;7.31;64.22
75604;BME280;64187;51.010;13.792;2023-12-20T15:30:21;99559.94;;;7.20;64.51
75604;BME280;64187;51.010;13.792;2023-12-20T15:35:20;99549.09;;;7.03;65.24
75604;BME280;64187;51.010;13.792;2023-12-20T15:40:19;99560.34;;;6.88;66.14
75604;BME280;64187;51.010;13.792;2023-12-20T15:45:18;99557.22;;;6.91;66.33
75604;BME280;64187;51.010;13.792;2023-12-20T15:50:17;99552.06;;;6.89;66.41
75604;BME280;64187;51.010;13.792;2023-12-20T15:55:16;99568.66;;;6.98;66.03
75604;BME280;64187;51.010;13.792;2023-12-20T16:00:16;99569.81;;;7.02;66.55
75604;BME280;64187;51.010;13.792;2023-12-20T16:05:15;99571.47;;;7.03;66.41
75604;BME280;64187;51.010;13.792;2023-12-20T16:10:14;99572.59;;;7.07;66.27
75604;BME280;64187;51.010;13.792;2023-12-20T16:15:14;99569.59;;;7.04;66.79
75604;BME280;64187;51.010;13.792;2023-12-20T16:20:13;99574.75;;;6.94;67.02
75604;BME280;64187;51.010;13.792;2023-12-20T16:25:12;99565.13;;;6.98;67.30
75604;BME280;64187;51.010;13.792;2023-12-20T16:30:11;99569.38;;;6.82;67.75
75604;BME280;64187;51.010;13.792;2023-12-20T16:35:11;99583.63;;;6.94;67.67
75604;BME280;64187;51.010;13.792;2023-12-20T16:40:10;99572.88;;;6.82;68.23
75604;BME280;64187;51.010;13.792;2023-12-20T16:45:11;99569.88;;;6.79;68.27
75604;BME280;64187;51.010;13.792;2023-12-20T16:50:11;99573.00;;;6.87;68.33
75604;BME280;64187;51.010;13.792;2023-12-20T16:55:10;99562.13;;;6.82;69.19
75604;BME280;64187;51.010;13.792;2023-12-20T17:00:10;99576.16;;;6.96;67.98
75604;BME280;64187;51.010;13.792;2023-12-20T17:05:09;99576.16;;;6.96;67.65
75604;BME280;64187;51.010;13.792;2023-12-20T17:10:08;99575.09;;;6.97;68.01
75604;BME280;64187;51.010;13.792;2023-12-20T17:15:08;99573.69;;;6.95;68.22
75604;BME280;64187;51.010;13.792;2023-12-20T17:20:07;99565.50;;;6.89;68.27
75604;BME280;64187;51.010;13.792;2023-12-20T17:25:10;99590.31;;;6.80;70.10
75604;BME280;64187;51.010;13.792;2023-12-20T17:30:10;99575.25;;;6.67;71.94
75604;BME280;64187;51.010;13.792;2023-12-20T17:35:09;99562.84;;;6.42;73.89
75604;BME280;64187;51.010;13.792;2023-12-20T17:40:08;99574.75;;;6.58;72.57
75604;BME280;64187;51.010;13.792;2023-12-20T17:45:07;99584.59;;;6.64;72.64
75604;BME280;64187;51.010;13.792;2023-12-20T17:50:07;99605.63;;;6.56;73.89
75604;BME280;64187;51.010;13.792;2023-12-20T17:55:06;99612.66;;;6.57;74.46
75604;BME280;64187;51.010;13.792;2023-12-20T18:00:35;99608.47;;;6.49;76.24
75604;BME280;64187;51.010;13.792;2023-12-20T18:05:34;99616.16;;;6.57;77.36
75604;BME280;64187;51.010;13.792;2023-12-20T18:10:33;99617.47;;;6.66;77.45
75604;BME280;64187;51.010;13.792;2023-12-20T18:15:32;99616.63;;;6.89;78.35
75604;BME280;64187;51.010;13.792;2023-12-20T18:20:31;99629.72;;;6.98;80.06
75604;BME280;64187;51.010;13.792;2023-12-20T18:25:30;99621.31;;;6.71;80.35
75604;BME280;64187;51.010;13.792;2023-12-20T18:30:29;99622.25;;;6.76;81.99
75604;BME280;64187;51.010;13.792;2023-12-20T18:35:28;99623.53;;;6.62;85.05
75604;BME280;64187;51.010;13.792;2023-12-20T18:40:27;99622.59;;;7.03;83.61
75604;BME280;64187;51.010;13.792;2023-12-20T18:45:28;99622.00;;;6.78;85.37
75604;BME280;64187;51.010;13.792;2023-12-20T18:50:27;99625.03;;;6.93;84.80
75604;BME280;64187;51.010;13.792;2023-12-20T18:55:26;99610.88;;;6.98;84.74
75604;BME280;64187;51.010;13.792;2023-12-20T19:00:25;99610.81;;;6.81;86.15
75604;BME280;64187;51.010;13.792;2023-12-20T19:05:24;99614.75;;;7.02;84.95
75604;BME280;64187;51.010;13.792;2023-12-20T19:10:25;99621.88;;;6.73;87.48
75604;BME280;64187;51.010;13.792;2023-12-20T19:15:25;99627.97;;;6.68;87.50
75604;BME280;64187;51.010;13.792;2023-12-20T19:20:24;99627.84;;;6.75;88.16
75604;BME280;64187;51.010;13.792;2023-12-20T19:25:23;99626.44;;;6.37;89.23
75604;BME280;64187;51.010;13.792;2023-12-20T19:30:22;99624.94;;;6.53;88.82
75604;BME280;64187;51.010;13.792;2023-12-20T19:35:21;99624.97;;;5.99;90.84
75604;BME280;64187;51.010;13.792;2023-12-20T19:40:20;99606.41;;;6.21;92.08
75604;BME280;64187;51.010;13.792;2023-12-20T19:45:18;99593.13;;;6.50;88.25
75604;BME280;64187;51.010;13.792;2023-12-20T19:50:18;99596.75;;;6.55;89.27
75604;BME280;64187;51.010;13.792;2023-12-20T19:55:17;99598.97;;;6.70;85.16
75604;BME280;64187;51.010;13.792;2023-12-20T20:00:16;99586.59;;;6.69;83.17
75604;BME280;64187;51.010;13.792;2023-12-20T20:05:15;99581.78;;;6.36;82.79
75604;BME280;64187;51.010;13.792;2023-12-20T20:10:14;99578.28;;;6.35;83.08
75604;BME280;64187;51.010;13.792;2023-12-20T20:15:13;99567.13;;;6.90;92.07
75604;BME280;64187;51.010;13.792;2023-12-20T20:20:12;99556.28;;;9.34;76.76
75604;BME280;64187;51.010;13.792;2023-12-20T20:25:11;99550.03;;;7.37;77.55
75604;BME280;64187;51.010;13.792;2023-12-20T20:30:10;99550.25;;;7.07;76.96
75604;BME280;64187;51.010;13.792;2023-12-20T20:35:09;99547.75;;;6.53;80.37
75604;BME280;64187;51.010;13.792;2023-12-20T20:40:09;99539.69;;;6.53;79.35
75604;BME280;64187;51.010;13.792;2023-12-20T20:45:08;99522.06;;;6.45;78.88
75604;BME280;64187;51.010;13.792;2023-12-20T20:50:08;99532.22;;;6.55;78.06
75604;BME280;64187;51.010;13.792;2023-12-20T20:55:09;99520.22;;;6.46;79.23
75604;BME280;64187;51.010;13.792;2023-12-20T21:00:08;99506.41;;;6.42;78.07
75604;BME280;64187;51.010;13.792;2023-12-20T21:05:07;99503.50;;;6.44;77.52
75604;BME280;64187;51.010;13.792;2023-12-20T21:10:08;99503.81;;;6.59;76.47
75604;BME280;64187;51.010;13.792;2023-12-20T21:15:07;99482.31;;;6.47;75.56
75604;BME280;64187;51.010;13.792;2023-12-20T21:20:07;99477.31;;;6.51;77.21
75604;BME280;64187;51.010;13.792;2023-12-20T21:25:07;99490.59;;;6.58;74.91
75604;BME280;64187;51.010;13.792;2023-12-20T21:30:08;99457.88;;;6.61;75.70
75604;BME280;64187;51.010;13.792;2023-12-20T21:35:09;99452.59;;;6.66;74.54
75604;BME280;64187;51.010;13.792;2023-12-20T21:40:08;99433.69;;;6.61;73.53
75604;BME280;64187;51.010;13.792;2023-12-20T21:45:07;99426.03;;;6.69;73.89
75604;BME280;64187;51.010;13.792;2023-12-20T21:50:07;99424.63;;;6.79;72.85
75604;BME280;64187;51.010;13.792;2023-12-20T21:55:06;99423.44;;;6.75;72.90
75604;BME280;64187;51.010;13.792;2023-12-20T22:00:06;99404.53;;;6.69;72.87
75604;BME280;64187;51.010;13.792;2023-12-20T22:05:07;99399.09;;;6.81;72.70
75604;BME280;64187;51.010;13.792;2023-12-20T22:10:07;99381.13;;;6.99;71.52
75604;BME280;64187;51.010;13.792;2023-12-20T22:15:06;99360.75;;;7.03;72.41
75604;BME280;64187;51.010;13.792;2023-12-20T22:20:06;99372.97;;;6.94;71.98
75604;BME280;64187;51.010;13.792;2023-12-20T22:25:05;99375.91;;;6.92;72.35
75604;BME280;64187;51.010;13.792;2023-12-20T22:30:05;99384.47;;;6.89;72.52
75604;BME280;64187;51.010;13.792;2023-12-20T22:35:05;99360.91;;;6.96;72.43
75604;BME280;64187;51.010;13.792;2023-12-20T22:40:06;99346.31;;;6.92;71.47
75604;BME280;64187;51.010;13.792;2023-12-20T22:45:05;99347.03;;;6.87;72.60
75604;BME280;64187;51.010;13.792;2023-12-20T22:50:05;99331.41;;;7.01;73.26
75604;BME280;64187;51.010;13.792;2023-12-20T22:55:05;99322.25;;;7.02;73.92
75604;BME280;64187;51.010;13.792;2023-12-20T23:00:05;99297.00;;;7.03;74.54
75604;BME280;64187;51.010;13.792;2023-12-20T23:05:08;99287.19;;;6.97;73.71
75604;BME280;64187;51.010;13.792;2023-12-20T23:10:07;99274.16;;;6.89;74.90
75604;BME280;64187;51.010;13.792;2023-12-20T23:15:06;99265.00;;;6.73;75.11
75604;BME280;64187;51.010;13.792;2023-12-20T23:20:06;99251.56;;;6.73;75.22
75604;BME280;64187;51.010;13.792;2023-12-20T23:25:05;99245.16;;;6.91;75.50
75604;BME280;64187;51.010;13.792;2023-12-20T23:30:05;99236.59;;;6.94;74.48
75604;BME280;64187;51.010;13.792;2023-12-20T23:35:05;99215.72;;;6.84;75.12
75604;BME280;64187;51.010;13.792;2023-12-20T23:40:14;99217.59;;;6.67;76.01
75604;BME280;64187;51.010;13.792;2023-12-20T23:45:13;99220.91;;;7.08;74.50
75604;BME280;64187;51.010;13.792;2023-12-20T23:50:12;99219.94;;;6.97;75.00
75604;BME280;64187;51.010;13.792;2023-12-20T23:55:11;99199.06;;;6.87;76.77
